createdAt,value
2023-07-04T00:00:28.071Z,17.67
2023-07-04T00:03:30.642Z,17.33
2023-07-04T00:06:33.794Z,17.10
2023-07-04T00:09:35.531Z,17.03
2023-07-04T00:12:38.468Z,16.79
2023-07-04T00:15:45.142Z,16.69
2023-07-04T00:18:46.900Z,16.78
2023-07-04T00:21:49.966Z,16.61
2023-07-04T00:24:51.691Z,16.47
2023-07-04T00:27:53.397Z,16.60
2023-07-04T00:30:56.354Z,16.39
2023-07-04T00:33:58.209Z,15.96
2023-07-04T00:37:01.402Z,15.94
2023-07-04T00:40:03.495Z,15.95
2023-07-04T00:43:05.762Z,16.07
2023-07-04T00:46:08.707Z,16.14
2023-07-04T00:49:17.818Z,16.02
2023-07-04T00:52:24.208Z,15.81
2023-07-04T00:55:26.602Z,15.94
2023-07-04T00:58:28.288Z,16.26
2023-07-04T01:01:30.051Z,16.61
2023-07-04T01:04:33.474Z,16.85
2023-07-04T01:07:42.547Z,17.05
2023-07-04T01:10:47.293Z,17.18
2023-07-04T01:13:49.161Z,17.26
2023-07-04T01:16:51.438Z,17.37
2023-07-04T01:19:53.971Z,17.39
2023-07-04T01:23:05.971Z,17.47
2023-07-04T01:26:26.183Z,17.53
2023-07-04T01:29:27.979Z,17.38
2023-07-04T01:32:29.861Z,17.33
2023-07-04T01:35:31.625Z,17.34
2023-07-04T01:38:33.639Z,17.46
2023-07-04T01:41:36.740Z,17.39
2023-07-04T01:44:38.512Z,17.42
2023-07-04T01:47:40.852Z,17.40
2023-07-04T01:50:42.575Z,17.40
2023-07-04T01:53:44.289Z,17.42
2023-07-04T01:56:49.776Z,17.46
2023-07-04T01:59:52.074Z,17.52
2023-07-04T02:02:53.848Z,17.47
2023-07-04T02:05:57.959Z,17.36
2023-07-04T02:08:59.637Z,17.35
2023-07-04T02:12:02.737Z,17.37
2023-07-04T02:15:05.546Z,17.33
2023-07-04T02:18:08.575Z,17.37
2023-07-04T02:21:10.329Z,17.31
2023-07-04T02:24:12.081Z,17.22
2023-07-04T02:27:15.289Z,17.23
2023-07-04T02:30:17.074Z,17.22
2023-07-04T02:33:18.804Z,17.25
2023-07-04T02:36:20.900Z,17.09
2023-07-04T02:39:22.869Z,17.09
2023-07-04T02:42:25.950Z,17.01
2023-07-04T02:45:27.726Z,16.99
2023-07-04T02:48:29.480Z,16.89
2023-07-04T02:51:31.170Z,16.85
2023-07-04T02:54:32.890Z,16.73
2023-07-04T02:57:35.989Z,16.57
2023-07-04T03:00:37.714Z,16.49
2023-07-04T03:03:39.502Z,16.64
2023-07-04T03:06:41.376Z,16.73
2023-07-04T03:09:43.111Z,16.83
2023-07-04T03:12:46.295Z,16.89
2023-07-04T03:15:48.048Z,16.95
2023-07-04T03:18:50.274Z,16.97
2023-07-04T03:21:52.019Z,16.99
2023-07-04T03:24:53.764Z,16.95
2023-07-04T03:27:56.863Z,17.00
2023-07-04T03:30:58.589Z,16.97
2023-07-04T03:34:00.363Z,16.97
2023-07-04T03:37:02.050Z,16.98
2023-07-04T03:40:04.892Z,16.84
2023-07-04T03:43:07.979Z,16.83
2023-07-04T03:46:09.703Z,16.86
2023-07-04T03:49:11.398Z,16.81
2023-07-04T03:52:13.190Z,16.88
2023-07-04T03:55:14.900Z,16.78
2023-07-04T03:58:18.361Z,16.83
2023-07-04T04:01:22.096Z,16.78
2023-07-04T04:04:23.928Z,16.76
2023-07-04T04:07:26.412Z,16.62
2023-07-04T04:10:28.177Z,16.71
2023-07-04T04:13:33.753Z,16.67
2023-07-04T04:16:36.295Z,16.69
2023-07-04T04:19:41.252Z,16.71
2023-07-04T04:22:44.573Z,16.72
2023-07-04T04:25:49.028Z,16.71
2023-07-04T04:28:54.819Z,16.58
2023-07-04T04:31:57.674Z,16.77
2023-07-04T04:35:02.169Z,16.83
2023-07-04T04:38:03.902Z,16.90
2023-07-04T04:41:07.580Z,16.94
2023-07-04T04:44:12.467Z,16.97
2023-07-04T04:47:16.238Z,16.98
2023-07-04T04:50:18.002Z,16.97
2023-07-04T04:53:21.152Z,17.11
2023-07-04T04:56:23.731Z,17.12
2023-07-04T04:59:26.823Z,17.18
2023-07-04T05:02:30.705Z,17.26
2023-07-04T05:05:32.781Z,17.28
2023-07-04T05:08:35.441Z,17.38
2023-07-04T05:11:37.622Z,17.38
2023-07-04T05:14:40.709Z,17.44
2023-07-04T05:17:42.915Z,17.46
2023-07-04T05:20:45.515Z,17.53
2023-07-04T05:23:49.307Z,17.57
2023-07-04T05:26:51.484Z,17.63
2023-07-04T05:29:57.036Z,17.56
2023-07-04T05:32:59.054Z,17.58
2023-07-04T05:36:06.888Z,17.60
2023-07-04T05:39:09.419Z,17.62
2023-07-04T05:42:11.602Z,17.54
2023-07-04T05:45:15.607Z,17.55
2023-07-04T05:48:20.158Z,17.56
2023-07-04T05:51:25.047Z,17.45
2023-07-04T05:54:26.988Z,17.42
2023-07-04T05:57:31.187Z,17.40
2023-07-04T06:00:35.518Z,17.37
2023-07-04T06:03:41.622Z,17.41
2023-07-04T06:06:45.899Z,17.47
2023-07-04T06:09:47.638Z,17.57
2023-07-04T06:12:49.391Z,17.62
2023-07-04T06:15:53.064Z,17.67
2023-07-04T06:18:55.371Z,17.60
2023-07-04T06:21:58.123Z,17.71
2023-07-04T06:25:00.716Z,17.87
2023-07-04T06:28:02.799Z,17.95
2023-07-04T06:31:13.882Z,18.14
2023-07-04T06:34:15.881Z,18.25
2023-07-04T06:37:20.966Z,18.40
2023-07-04T06:40:22.771Z,18.43
2023-07-04T06:43:25.668Z,18.38
2023-07-04T06:46:32.340Z,18.37
2023-07-04T06:49:36.922Z,18.29
2023-07-04T06:52:39.394Z,18.24
2023-07-04T06:55:42.260Z,18.13
2023-07-04T06:58:47.744Z,18.27
2023-07-04T07:01:51.255Z,18.25
2023-07-04T07:04:53.791Z,18.36
2023-07-04T07:07:55.568Z,18.46
2023-07-04T07:10:59.112Z,18.50
2023-07-04T07:14:01.748Z,18.51
2023-07-04T07:17:06.150Z,18.68
2023-07-04T07:20:08.930Z,18.58
2023-07-04T07:23:14.882Z,18.75
2023-07-04T07:26:20.207Z,18.86
2023-07-04T07:29:26.899Z,18.97
2023-07-04T07:32:30.232Z,18.97
2023-07-04T07:35:32.579Z,18.97
2023-07-04T07:38:34.272Z,18.97
2023-07-04T07:41:39.559Z,18.97
2023-07-04T07:44:41.579Z,19.00
2023-07-04T07:47:44.752Z,19.04
2023-07-04T07:50:48.243Z,19.10
2023-07-04T07:53:51.468Z,19.17
2023-07-04T07:56:53.291Z,19.24
2023-07-04T07:59:55.766Z,19.28
2023-07-04T08:02:59.131Z,19.35
2023-07-04T08:06:02.122Z,19.36
2023-07-04T08:09:07.364Z,19.45
2023-07-04T08:12:09.209Z,19.54
2023-07-04T08:15:11.391Z,19.48
2023-07-04T08:18:16.858Z,19.54
2023-07-04T08:21:19.338Z,19.47
2023-07-04T08:24:25.255Z,19.38
2023-07-04T08:27:30.075Z,19.37
2023-07-04T08:30:33.318Z,19.35
2023-07-04T08:33:36.981Z,19.41
2023-07-04T08:36:39.702Z,19.46
2023-07-04T08:39:42.054Z,19.52
2023-07-04T08:42:47.422Z,19.58
2023-07-04T08:45:49.984Z,19.67
2023-07-04T08:48:54.132Z,19.67
2023-07-04T08:52:01.030Z,19.86
2023-07-04T08:55:03.161Z,19.79
2023-07-04T08:58:04.928Z,19.89
2023-07-04T09:01:17.900Z,20.05
2023-07-04T09:04:31.995Z,20.18
2023-07-04T09:07:41.209Z,20.31
2023-07-04T09:10:45.038Z,20.30
2023-07-04T09:13:50.762Z,20.26
2023-07-04T09:16:55.523Z,20.23
2023-07-04T09:20:02.515Z,20.30
2023-07-04T09:23:11.967Z,20.27
2023-07-04T09:26:18.650Z,20.28
2023-07-04T09:29:22.977Z,20.40
2023-07-04T09:32:26.042Z,20.47
2023-07-04T09:35:29.779Z,20.54
2023-07-04T09:38:51.280Z,20.54
2023-07-04T09:42:13.136Z,20.47
2023-07-04T09:45:24.257Z,20.62
2023-07-04T09:48:26.407Z,20.79
2023-07-04T09:51:31.483Z,20.95
2023-07-04T09:54:36.827Z,20.97
2023-07-04T09:57:43.074Z,21.23
2023-07-04T10:00:46.478Z,21.39
2023-07-04T10:03:49.597Z,21.29
2023-07-04T10:06:56.321Z,21.16
2023-07-04T10:10:03.547Z,21.14
2023-07-04T10:13:08.396Z,21.19
2023-07-04T10:16:21.315Z,21.11
2023-07-04T10:19:24.565Z,21.19
2023-07-04T10:22:32.633Z,21.31
2023-07-04T10:25:37.816Z,21.35
2023-07-04T10:31:42.917Z,21.48
2023-07-04T10:34:48.058Z,21.53
2023-07-04T10:37:56.033Z,21.50
2023-07-04T10:40:59.898Z,21.53
2023-07-04T10:44:06.630Z,21.52
2023-07-04T10:47:13.103Z,21.43
2023-07-04T10:50:20.302Z,21.73
2023-07-04T10:53:24.325Z,22.01
2023-07-04T10:56:31.302Z,22.07
2023-07-04T10:59:39.661Z,22.06
2023-07-04T11:02:46.986Z,22.05
2023-07-04T11:05:54.965Z,21.80
2023-07-04T11:08:59.732Z,21.79
2023-07-04T11:12:04.105Z,21.77
2023-07-04T11:15:19.964Z,21.77
2023-07-04T11:18:25.105Z,21.73
2023-07-04T11:21:27.189Z,21.74
2023-07-04T11:24:34.442Z,21.83
2023-07-04T11:27:36.535Z,21.94
2023-07-04T11:30:42.345Z,21.90
2023-07-04T11:34:01.925Z,22.01
2023-07-04T11:37:05.015Z,22.13
2023-07-04T11:40:21.594Z,22.17
2023-07-04T11:43:26.920Z,22.22
2023-07-04T11:46:32.250Z,22.31
2023-07-04T11:49:37.594Z,22.35
2023-07-04T11:52:43.351Z,22.41
2023-07-04T11:56:05.791Z,22.48
2023-07-04T11:59:47.132Z,22.54
2023-07-04T12:02:50.120Z,22.56
2023-07-04T12:05:55.287Z,22.72
2023-07-04T12:08:59.728Z,22.82
2023-07-04T12:12:07.001Z,22.94
2023-07-04T12:15:12.385Z,23.16
2023-07-04T12:18:17.795Z,23.37
2023-07-04T12:21:21.186Z,23.37
2023-07-04T12:24:25.133Z,23.37
2023-07-04T12:27:29.476Z,23.51
2023-07-04T12:33:39.823Z,23.37
2023-07-04T12:36:42.170Z,23.38
2023-07-04T12:39:48.446Z,23.31
2023-07-04T12:42:53.394Z,23.43
2023-07-04T12:52:27.921Z,23.50
2023-07-04T12:55:33.607Z,23.49
2023-07-04T12:58:40.794Z,23.64
2023-07-04T13:01:43.350Z,23.72
2023-07-04T13:04:45.275Z,23.74
2023-07-04T13:07:50.820Z,23.68
2023-07-04T13:10:56.163Z,23.69
2023-07-04T13:14:07.201Z,23.39
2023-07-04T13:17:12.580Z,23.42
2023-07-04T13:20:17.972Z,23.61
2023-07-04T13:26:28.590Z,24.16
2023-07-04T13:35:44.657Z,23.95
2023-07-04T13:41:56.283Z,24.34
2023-07-04T13:48:06.692Z,24.04
2023-07-04T13:51:08.781Z,23.76
2023-07-04T13:54:11.976Z,23.81
2023-07-04T13:57:14.438Z,24.10
2023-07-04T14:00:24.172Z,24.32
2023-07-04T14:06:34.301Z,24.51
2023-07-04T14:09:38.626Z,24.58
2023-07-04T14:12:40.626Z,24.62
2023-07-04T14:22:04.480Z,24.41
2023-07-04T14:25:07.093Z,24.32
2023-07-04T14:28:11.236Z,24.19
2023-07-04T14:31:16.867Z,23.97
2023-07-04T14:34:18.985Z,23.89
2023-07-04T14:37:21.073Z,23.91
2023-07-04T14:43:27.501Z,23.79
2023-07-04T14:46:31.176Z,24.02
2023-07-04T14:49:32.918Z,24.23
2023-07-04T14:52:37.776Z,24.46
2023-07-04T14:55:40.174Z,24.66
2023-07-04T14:58:43.683Z,24.87
2023-07-04T15:01:48.180Z,24.79
2023-07-04T15:04:50.917Z,24.82
2023-07-04T15:07:53.390Z,24.93
2023-07-04T15:10:55.470Z,24.99
2023-07-04T15:14:01.626Z,24.83
2023-07-04T15:17:07.599Z,24.87
2023-07-04T15:20:11.268Z,25.20
2023-07-04T15:23:14.332Z,25.41
2023-07-04T15:26:26.107Z,25.37
2023-07-04T15:29:29.394Z,25.60
2023-07-04T15:32:32.720Z,25.78
2023-07-04T15:35:34.765Z,25.74
2023-07-04T15:38:36.974Z,25.85
2023-07-04T15:41:40.898Z,25.89
2023-07-04T15:44:42.874Z,26.05
2023-07-04T15:47:47.917Z,26.43
2023-07-04T15:50:50.088Z,26.72
2023-07-04T15:53:52.058Z,27.04
2023-07-04T15:56:55.810Z,27.26
2023-07-04T15:59:59.205Z,27.54
2023-07-04T16:03:03.571Z,27.70
2023-07-04T16:06:10.766Z,27.60
2023-07-04T16:09:14.329Z,27.48
2023-07-04T16:12:16.175Z,27.40
2023-07-04T16:15:21.040Z,27.48
2023-07-04T16:18:25.504Z,27.71
2023-07-04T16:21:27.599Z,27.72
2023-07-04T16:24:30.274Z,27.73
2023-07-04T16:27:32.730Z,27.97
2023-07-04T16:30:35.166Z,27.91
2023-07-04T16:33:39.546Z,28.04
2023-07-04T16:36:41.716Z,27.83
2023-07-04T16:39:43.889Z,26.94
2023-07-04T16:42:46.436Z,26.59
2023-07-04T16:45:51.000Z,26.37
2023-07-04T16:48:57.321Z,26.21
2023-07-04T16:52:01.701Z,25.98
2023-07-04T16:55:04.279Z,25.90
2023-07-04T16:58:07.692Z,25.57
2023-07-04T17:01:09.485Z,25.37
2023-07-04T17:04:13.910Z,25.28
2023-07-04T17:07:18.279Z,24.96
2023-07-04T17:10:21.205Z,24.97
2023-07-04T17:16:30.069Z,24.69
2023-07-04T17:19:35.789Z,24.74
2023-07-04T17:22:40.376Z,24.77
2023-07-04T17:25:46.239Z,24.68
2023-07-04T17:28:48.066Z,24.64
2023-07-04T17:31:50.759Z,24.58
2023-07-04T17:34:56.976Z,24.59
2023-07-04T17:38:00.859Z,24.56
2023-07-04T17:41:04.791Z,24.46
2023-07-04T17:44:07.946Z,24.36
2023-07-04T17:47:10.986Z,24.33
2023-07-04T17:50:18.690Z,24.33
2023-07-04T17:53:22.091Z,24.34
2023-07-04T17:56:26.090Z,24.35
2023-07-04T17:59:29.342Z,24.33
2023-07-04T18:02:32.784Z,24.25
2023-07-04T18:05:38.298Z,24.23
2023-07-04T18:08:43.727Z,24.20
2023-07-04T18:11:47.162Z,24.18
2023-07-04T18:14:53.408Z,24.15
2023-07-04T18:17:57.263Z,24.08
2023-07-04T18:21:07.759Z,24.11
2023-07-04T18:24:13.387Z,24.05
2023-07-04T18:27:17.053Z,24.01
2023-07-04T18:30:19.741Z,23.94
2023-07-04T18:33:22.602Z,23.97
2023-07-04T18:36:28.851Z,23.85
2023-07-04T18:39:31.842Z,23.89
2023-07-04T18:42:37.640Z,23.84
2023-07-04T18:45:45.420Z,23.84
2023-07-04T18:48:50.454Z,23.76
2023-07-04T18:51:55.249Z,23.72
2023-07-04T18:54:58.548Z,23.55
2023-07-04T18:58:01.987Z,23.56
2023-07-04T19:01:12.808Z,23.52
2023-07-04T19:04:17.464Z,23.54
2023-07-04T19:07:22.720Z,23.56
2023-07-04T19:10:27.770Z,23.43
2023-07-04T19:13:34.316Z,23.47
2023-07-04T19:16:40.026Z,23.47
2023-07-04T19:19:45.071Z,23.34
2023-07-04T19:22:53.820Z,23.26
2023-07-04T19:25:57.815Z,23.19
2023-07-04T19:29:01.477Z,23.26
2023-07-04T19:32:06.291Z,23.18
2023-07-04T19:35:11.306Z,23.23
2023-07-04T19:38:26.055Z,23.21
2023-07-04T19:41:31.467Z,23.14
2023-07-04T19:44:38.770Z,23.12
2023-07-04T19:47:42.742Z,23.18
2023-07-04T19:50:46.591Z,23.14
2023-07-04T19:53:54.294Z,23.07
2023-07-04T19:57:10.974Z,22.99
2023-07-04T20:00:16.758Z,22.95
2023-07-04T20:03:21.139Z,22.98
2023-07-04T20:06:25.562Z,22.94
2023-07-04T20:09:31.099Z,22.94
2023-07-04T20:12:34.723Z,22.88
2023-07-04T20:15:42.798Z,22.66
2023-07-04T20:18:46.584Z,22.58
2023-07-04T20:21:50.450Z,22.55
2023-07-04T20:24:56.037Z,22.41
2023-07-04T20:28:01.971Z,22.38
2023-07-04T20:31:06.884Z,22.34
2023-07-04T20:34:12.510Z,22.17
2023-07-04T20:37:18.864Z,22.20
2023-07-04T20:40:23.612Z,22.15
2023-07-04T20:43:26.833Z,22.23
2023-07-04T20:46:29.369Z,22.17
2023-07-04T20:49:32.045Z,22.13
2023-07-04T20:52:34.117Z,22.06
2023-07-04T20:55:38.774Z,21.94
2023-07-04T20:58:43.111Z,22.03
2023-07-04T21:01:45.230Z,22.11
2023-07-04T21:04:52.316Z,22.07
2023-07-04T21:07:56.543Z,22.02
2023-07-04T21:11:02.584Z,22.02
2023-07-04T21:14:04.757Z,22.02
2023-07-04T21:17:07.652Z,22.01
2023-07-04T21:20:10.087Z,21.88
2023-07-04T21:23:12.230Z,21.91
2023-07-04T21:26:15.566Z,21.89
2023-07-04T21:29:18.820Z,21.90
2023-07-04T21:32:22.372Z,21.83
2023-07-04T21:35:24.200Z,21.81
2023-07-04T21:38:26.188Z,21.75
2023-07-04T21:41:31.616Z,21.80
2023-07-04T21:44:35.970Z,21.75
2023-07-04T21:47:39.006Z,21.62
2023-07-04T21:50:41.093Z,21.61
2023-07-04T21:53:43.388Z,21.47
2023-07-04T21:56:46.690Z,21.37
2023-07-04T21:59:49.849Z,21.30
2023-07-04T22:02:51.985Z,21.15
2023-07-04T22:06:01.797Z,21.14
2023-07-04T22:09:04.055Z,21.04
2023-07-04T22:12:08.718Z,20.91
2023-07-04T22:15:11.624Z,20.81
2023-07-04T22:18:14.076Z,20.83
2023-07-04T22:21:16.896Z,20.67
2023-07-04T22:24:18.651Z,20.23
2023-07-04T22:27:22.900Z,20.03
2023-07-04T22:30:26.941Z,19.43
2023-07-04T22:33:31.113Z,19.50
2023-07-04T22:36:35.939Z,19.40
2023-07-04T22:39:37.809Z,19.46
2023-07-04T22:42:43.286Z,19.24
2023-07-04T22:45:49.083Z,18.93
2023-07-04T22:48:51.672Z,18.63
2023-07-04T22:51:54.333Z,18.35
2023-07-04T22:54:56.068Z,18.49
2023-07-04T22:58:00.161Z,18.83
2023-07-04T23:01:07.602Z,19.09
2023-07-04T23:04:09.349Z,19.21
2023-07-04T23:07:11.328Z,19.15
2023-07-04T23:10:13.103Z,18.56
2023-07-04T23:13:16.252Z,18.20
2023-07-04T23:16:20.385Z,18.30
2023-07-04T23:19:22.332Z,18.41
2023-07-04T23:22:24.045Z,18.47
2023-07-04T23:25:28.517Z,18.48
2023-07-04T23:28:35.208Z,18.75
2023-07-04T23:31:37.008Z,18.67
2023-07-04T23:34:38.721Z,18.16
2023-07-04T23:37:41.186Z,18.51
2023-07-04T23:40:43.347Z,18.62
2023-07-04T23:43:47.038Z,18.80
2023-07-04T23:46:49.079Z,18.55
2023-07-04T23:49:51.025Z,18.63
2023-07-04T23:52:52.995Z,18.87
2023-07-04T23:55:56.231Z,18.87
2023-07-04T23:58:59.685Z,18.80
